Terminal Aerodrome Forecast
Issued by NWS Charleston, WV

Current Version | Previous Version | Graphics & Text | Print | Product List | Glossary On
Versions: 1 2 3 4 5 6 7 8 9 10 11 12 13 14 15 16 17 18 19 20 21 22 23 24 25 26
729
FTUS41 KRLX 190928 AAB
TAFBKW
TAF AMD
KBKW 190928Z 1909/2006 VRB03KT 1/2SM FG BKN002
     FM191400 20005KT P6SM SCT010
     FM191600 16005KT P6SM SCT150=

USA.gov is the U.S. government's official web portal to all federal, state and local government web resources and services.